Terminal Aerodrome Forecast
Issued by NWS Sioux Falls, SD

Home | Current Version | Previous Version | Graphics & Text | Print | Product List | Glossary On
Versions: 1 2 3 4 5 6 7 8 9 10 11 12 13 14
000
FTUS43 KFSD 202322
TAFSUX
TAF
KSUX 202322Z 2100/2124 01007KT P6SM SCT250
     FM210200 VRB05KT P6SM FEW250
     FM210900 11007KT P6SM BKN120
     FM211400 13010KT P6SM BKN090
     FM211800 16014KT P6SM BKN070
     FM212000 18013KT P6SM SCT150=

USA.gov is the U.S. government's official web portal to all federal, state and local government web resources and services.